Terminal Aerodrome Forecast
Issued by NWS Binghamton, NY

Home | Current Version | Previous Version | Text Only | Print | Product List | Glossary On
Versions: 1 2 3 4 5 6 7 8 9 10 11 12 13 14 15 16 17 18 19 20 21
155
FTUS41 KBGM 261741
TAFSYR
TAF
KSYR 261741Z 2618/2718 27012G22KT P6SM BKN040
     FM262200 25007KT P6SM SCT040
     FM270300 22008KT P6SM BKN250
     FM271200 24010KT P6SM BKN080=

USA.gov is the U.S. government's official web portal to all federal, state and local government web resources and services.